sensor_id;sensor_type;location;lat;lon;timestamp;P1;durP1;ratioP1;P2;durP2;ratioP2
71106;SDS011;58763;47.982;11.516;2023-11-19T00:00:42;2.45;;;1.00;;
71106;SDS011;58763;47.982;11.516;2023-11-19T00:03:08;2.70;;;1.10;;
71106;SDS011;58763;47.982;11.516;2023-11-19T00:05:36;2.10;;;1.00;;
71106;SDS011;58763;47.982;11.516;2023-11-19T00:08:01;2.08;;;1.10;;
71106;SDS011;58763;47.982;11.516;2023-11-19T00:10:27;2.63;;;1.00;;
71106;SDS011;58763;47.982;11.516;2023-11-19T00:12:52;2.08;;;1.02;;
71106;SDS011;58763;47.982;11.516;2023-11-19T00:15:19;2.20;;;0.90;;
71106;SDS011;58763;47.982;11.516;2023-11-19T00:17:45;2.67;;;0.98;;
71106;SDS011;58763;47.982;11.516;2023-11-19T00:20:14;2.42;;;1.20;;
71106;SDS011;58763;47.982;11.516;2023-11-19T00:22:43;2.72;;;1.20;;
71106;SDS011;58763;47.982;11.516;2023-11-19T00:25:09;2.78;;;1.60;;
71106;SDS011;58763;47.982;11.516;2023-11-19T00:27:35;3.92;;;2.05;;
71106;SDS011;58763;47.982;11.516;2023-11-19T00:30:01;4.28;;;2.28;;
71106;SDS011;58763;47.982;11.516;2023-11-19T00:32:28;3.15;;;1.90;;
71106;SDS011;58763;47.982;11.516;2023-11-19T00:34:54;3.10;;;1.70;;
71106;SDS011;58763;47.982;11.516;2023-11-19T00:37:20;3.30;;;1.70;;
71106;SDS011;58763;47.982;11.516;2023-11-19T00:39:45;2.83;;;1.50;;
71106;SDS011;58763;47.982;11.516;2023-11-19T00:42:11;2.90;;;1.60;;
71106;SDS011;58763;47.982;11.516;2023-11-19T00:44:36;2.85;;;1.50;;
71106;SDS011;58763;47.982;11.516;2023-11-19T00:47:02;2.60;;;1.27;;
71106;SDS011;58763;47.982;11.516;2023-11-19T00:49:28;2.25;;;1.25;;
71106;SDS011;58763;47.982;11.516;2023-11-19T00:51:53;3.00;;;1.40;;
71106;SDS011;58763;47.982;11.516;2023-11-19T00:54:19;2.65;;;1.30;;
71106;SDS011;58763;47.982;11.516;2023-11-19T00:56:45;2.97;;;1.35;;
71106;SDS011;58763;47.982;11.516;2023-11-19T00:59:11;2.28;;;1.10;;
71106;SDS011;58763;47.982;11.516;2023-11-19T01:01:37;2.42;;;1.02;;
71106;SDS011;58763;47.982;11.516;2023-11-19T01:04:02;2.83;;;1.30;;
71106;SDS011;58763;47.982;11.516;2023-11-19T01:06:28;2.47;;;1.17;;
71106;SDS011;58763;47.982;11.516;2023-11-19T01:08:54;2.92;;;1.00;;
71106;SDS011;58763;47.982;11.516;2023-11-19T01:11:22;2.33;;;1.15;;
71106;SDS011;58763;47.982;11.516;2023-11-19T01:13:48;2.67;;;1.20;;
71106;SDS011;58763;47.982;11.516;2023-11-19T01:16:14;1.85;;;0.90;;
71106;SDS011;58763;47.982;11.516;2023-11-19T01:18:39;2.05;;;0.95;;
71106;SDS011;58763;47.982;11.516;2023-11-19T01:21:05;2.38;;;1.15;;
71106;SDS011;58763;47.982;11.516;2023-11-19T01:23:30;2.10;;;1.10;;
71106;SDS011;58763;47.982;11.516;2023-11-19T01:25:56;2.75;;;1.35;;
71106;SDS011;58763;47.982;11.516;2023-11-19T01:28:21;2.20;;;0.95;;
71106;SDS011;58763;47.982;11.516;2023-11-19T01:30:50;2.65;;;1.25;;
71106;SDS011;58763;47.982;11.516;2023-11-19T01:33:17;3.50;;;1.45;;
71106;SDS011;58763;47.982;11.516;2023-11-19T01:35:42;2.65;;;1.20;;
71106;SDS011;58763;47.982;11.516;2023-11-19T01:38:08;2.97;;;1.35;;
71106;SDS011;58763;47.982;11.516;2023-11-19T01:40:34;2.22;;;1.10;;
71106;SDS011;58763;47.982;11.516;2023-11-19T01:43:01;4.00;;;1.30;;
71106;SDS011;58763;47.982;11.516;2023-11-19T01:45:28;3.83;;;1.60;;
71106;SDS011;58763;47.982;11.516;2023-11-19T01:47:59;4.07;;;1.42;;
71106;SDS011;58763;47.982;11.516;2023-11-19T01:50:28;3.47;;;1.88;;
71106;SDS011;58763;47.982;11.516;2023-11-19T01:52:55;3.13;;;1.50;;
71106;SDS011;58763;47.982;11.516;2023-11-19T01:55:25;2.70;;;1.20;;
71106;SDS011;58763;47.982;11.516;2023-11-19T01:57:54;2.47;;;1.13;;
71106;SDS011;58763;47.982;11.516;2023-11-19T02:00:23;2.75;;;1.45;;
71106;SDS011;58763;47.982;11.516;2023-11-19T02:02:49;2.45;;;1.17;;
71106;SDS011;58763;47.982;11.516;2023-11-19T02:05:17;2.97;;;1.40;;
71106;SDS011;58763;47.982;11.516;2023-11-19T02:07:43;4.10;;;1.50;;
71106;SDS011;58763;47.982;11.516;2023-11-19T02:10:08;2.35;;;1.10;;
71106;SDS011;58763;47.982;11.516;2023-11-19T02:12:42;3.13;;;1.67;;
71106;SDS011;58763;47.982;11.516;2023-11-19T02:15:08;3.10;;;1.60;;
71106;SDS011;58763;47.982;11.516;2023-11-19T02:17:35;3.45;;;1.60;;
71106;SDS011;58763;47.982;11.516;2023-11-19T02:20:02;3.70;;;1.80;;
71106;SDS011;58763;47.982;11.516;2023-11-19T02:22:34;8.38;;;3.08;;
71106;SDS011;58763;47.982;11.516;2023-11-19T02:25:00;3.90;;;1.63;;
71106;SDS011;58763;47.982;11.516;2023-11-19T02:30:01;3.03;;;1.65;;
71106;SDS011;58763;47.982;11.516;2023-11-19T02:32:29;3.78;;;1.60;;
71106;SDS011;58763;47.982;11.516;2023-11-19T02:34:56;3.03;;;1.50;;
71106;SDS011;58763;47.982;11.516;2023-11-19T02:37:21;2.92;;;1.60;;
71106;SDS011;58763;47.982;11.516;2023-11-19T02:39:46;2.85;;;1.55;;
71106;SDS011;58763;47.982;11.516;2023-11-19T02:42:12;2.80;;;1.23;;
71106;SDS011;58763;47.982;11.516;2023-11-19T02:44:38;3.25;;;1.58;;
71106;SDS011;58763;47.982;11.516;2023-11-19T02:47:11;2.97;;;1.40;;
71106;SDS011;58763;47.982;11.516;2023-11-19T02:49:38;2.90;;;1.35;;
71106;SDS011;58763;47.982;11.516;2023-11-19T02:52:04;3.10;;;1.40;;
71106;SDS011;58763;47.982;11.516;2023-11-19T02:54:31;2.92;;;1.20;;
71106;SDS011;58763;47.982;11.516;2023-11-19T02:57:00;2.70;;;1.30;;
71106;SDS011;58763;47.982;11.516;2023-11-19T02:59:28;3.55;;;1.30;;
71106;SDS011;58763;47.982;11.516;2023-11-19T03:02:03;2.83;;;1.40;;
71106;SDS011;58763;47.982;11.516;2023-11-19T03:04:36;3.05;;;1.55;;
71106;SDS011;58763;47.982;11.516;2023-11-19T03:07:01;3.10;;;1.50;;
71106;SDS011;58763;47.982;11.516;2023-11-19T03:09:27;2.22;;;1.08;;
71106;SDS011;58763;47.982;11.516;2023-11-19T03:11:54;2.33;;;1.25;;
71106;SDS011;58763;47.982;11.516;2023-11-19T03:14:19;2.80;;;1.20;;
71106;SDS011;58763;47.982;11.516;2023-11-19T03:16:45;2.60;;;1.20;;
71106;SDS011;58763;47.982;11.516;2023-11-19T03:19:14;2.53;;;1.20;;
71106;SDS011;58763;47.982;11.516;2023-11-19T03:21:40;3.35;;;1.20;;
71106;SDS011;58763;47.982;11.516;2023-11-19T03:24:05;1.77;;;0.95;;
71106;SDS011;58763;47.982;11.516;2023-11-19T03:26:32;1.92;;;0.93;;
71106;SDS011;58763;47.982;11.516;2023-11-19T03:29:00;2.42;;;1.05;;
71106;SDS011;58763;47.982;11.516;2023-11-19T03:31:26;3.10;;;0.95;;
71106;SDS011;58763;47.982;11.516;2023-11-19T03:33:51;1.58;;;0.80;;
71106;SDS011;58763;47.982;11.516;2023-11-19T03:36:17;2.03;;;0.90;;
71106;SDS011;58763;47.982;11.516;2023-11-19T03:38:42;2.17;;;0.82;;
71106;SDS011;58763;47.982;11.516;2023-11-19T03:41:11;2.03;;;1.00;;
71106;SDS011;58763;47.982;11.516;2023-11-19T03:43:41;2.40;;;1.00;;
71106;SDS011;58763;47.982;11.516;2023-11-19T03:46:19;1.92;;;0.88;;
71106;SDS011;58763;47.982;11.516;2023-11-19T03:48:46;1.48;;;0.73;;
71106;SDS011;58763;47.982;11.516;2023-11-19T03:51:12;1.98;;;0.90;;
71106;SDS011;58763;47.982;11.516;2023-11-19T03:53:43;1.67;;;0.85;;
71106;SDS011;58763;47.982;11.516;2023-11-19T03:56:09;1.35;;;0.70;;
71106;SDS011;58763;47.982;11.516;2023-11-19T03:58:35;1.95;;;0.65;;
71106;SDS011;58763;47.982;11.516;2023-11-19T04:01:01;2.92;;;0.80;;
71106;SDS011;58763;47.982;11.516;2023-11-19T04:03:27;2.22;;;0.90;;
71106;SDS011;58763;47.982;11.516;2023-11-19T04:05:53;2.83;;;0.70;;
71106;SDS011;58763;47.982;11.516;2023-11-19T04:08:18;1.83;;;0.60;;
71106;SDS011;58763;47.982;11.516;2023-11-19T04:10:44;2.17;;;0.60;;
71106;SDS011;58763;47.982;11.516;2023-11-19T04:13:10;2.25;;;0.80;;
71106;SDS011;58763;47.982;11.516;2023-11-19T04:15:36;1.35;;;0.60;;
71106;SDS011;58763;47.982;11.516;2023-11-19T04:18:01;1.48;;;0.60;;
71106;SDS011;58763;47.982;11.516;2023-11-19T04:20:27;1.27;;;0.60;;
71106;SDS011;58763;47.982;11.516;2023-11-19T04:22:52;1.85;;;0.70;;
71106;SDS011;58763;47.982;11.516;2023-11-19T04:25:18;2.10;;;0.75;;
71106;SDS011;58763;47.982;11.516;2023-11-19T04:27:44;1.48;;;0.40;;
71106;SDS011;58763;47.982;11.516;2023-11-19T04:30:10;1.65;;;0.60;;
71106;SDS011;58763;47.982;11.516;2023-11-19T04:32:36;1.13;;;0.50;;
71106;SDS011;58763;47.982;11.516;2023-11-19T04:35:02;2.45;;;0.50;;
71106;SDS011;58763;47.982;11.516;2023-11-19T04:37:28;1.42;;;0.60;;
71106;SDS011;58763;47.982;11.516;2023-11-19T04:39:54;0.90;;;0.50;;
71106;SDS011;58763;47.982;11.516;2023-11-19T04:42:21;2.35;;;0.52;;
71106;SDS011;58763;47.982;11.516;2023-11-19T04:44:47;1.23;;;0.57;;
71106;SDS011;58763;47.982;11.516;2023-11-19T04:47:12;2.35;;;0.65;;
71106;SDS011;58763;47.982;11.516;2023-11-19T04:49:42;0.80;;;0.40;;
71106;SDS011;58763;47.982;11.516;2023-11-19T04:52:08;0.90;;;0.50;;
71106;SDS011;58763;47.982;11.516;2023-11-19T04:54:33;2.42;;;0.70;;
71106;SDS011;58763;47.982;11.516;2023-11-19T04:56:59;2.05;;;0.40;;
71106;SDS011;58763;47.982;11.516;2023-11-19T04:59:24;1.52;;;0.50;;
71106;SDS011;58763;47.982;11.516;2023-11-19T05:01:49;1.85;;;0.60;;
71106;SDS011;58763;47.982;11.516;2023-11-19T05:04:15;1.30;;;0.60;;
71106;SDS011;58763;47.982;11.516;2023-11-19T05:06:41;1.13;;;0.40;;
71106;SDS011;58763;47.982;11.516;2023-11-19T05:09:07;1.55;;;0.47;;
71106;SDS011;58763;47.982;11.516;2023-11-19T05:11:33;1.50;;;0.50;;
71106;SDS011;58763;47.982;11.516;2023-11-19T05:13:59;1.20;;;0.40;;
71106;SDS011;58763;47.982;11.516;2023-11-19T05:16:25;0.77;;;0.40;;
71106;SDS011;58763;47.982;11.516;2023-11-19T05:18:50;1.27;;;0.40;;
71106;SDS011;58763;47.982;11.516;2023-11-19T05:21:16;0.57;;;0.30;;
71106;SDS011;58763;47.982;11.516;2023-11-19T05:23:42;0.80;;;0.40;;
71106;SDS011;58763;47.982;11.516;2023-11-19T05:26:08;1.88;;;0.40;;
71106;SDS011;58763;47.982;11.516;2023-11-19T05:28:37;1.15;;;0.40;;
71106;SDS011;58763;47.982;11.516;2023-11-19T05:31:03;0.70;;;0.40;;
71106;SDS011;58763;47.982;11.516;2023-11-19T05:33:28;0.80;;;0.40;;
71106;SDS011;58763;47.982;11.516;2023-11-19T05:35:54;1.02;;;0.40;;
71106;SDS011;58763;47.982;11.516;2023-11-19T05:38:19;1.65;;;0.50;;
71106;SDS011;58763;47.982;11.516;2023-11-19T05:40:46;1.25;;;0.40;;
71106;SDS011;58763;47.982;11.516;2023-11-19T05:43:13;0.77;;;0.40;;
71106;SDS011;58763;47.982;11.516;2023-11-19T05:45:40;0.75;;;0.35;;
71106;SDS011;58763;47.982;11.516;2023-11-19T05:48:05;1.50;;;0.45;;
71106;SDS011;58763;47.982;11.516;2023-11-19T05:50:30;1.75;;;0.40;;
71106;SDS011;58763;47.982;11.516;2023-11-19T05:52:56;1.05;;;0.30;;
71106;SDS011;58763;47.982;11.516;2023-11-19T05:55:21;1.17;;;0.40;;
71106;SDS011;58763;47.982;11.516;2023-11-19T05:57:48;0.82;;;0.38;;
71106;SDS011;58763;47.982;11.516;2023-11-19T06:00:14;1.63;;;0.50;;
71106;SDS011;58763;47.982;11.516;2023-11-19T06:02:40;0.73;;;0.30;;
71106;SDS011;58763;47.982;11.516;2023-11-19T06:05:06;0.73;;;0.35;;
71106;SDS011;58763;47.982;11.516;2023-11-19T06:07:32;1.00;;;0.40;;
71106;SDS011;58763;47.982;11.516;2023-11-19T06:09:58;0.47;;;0.30;;
71106;SDS011;58763;47.982;11.516;2023-11-19T06:12:23;0.93;;;0.30;;
71106;SDS011;58763;47.982;11.516;2023-11-19T06:14:49;1.10;;;0.40;;
71106;SDS011;58763;47.982;11.516;2023-11-19T06:17:14;0.75;;;0.40;;
71106;SDS011;58763;47.982;11.516;2023-11-19T06:19:40;0.80;;;0.30;;
71106;SDS011;58763;47.982;11.516;2023-11-19T06:22:05;0.73;;;0.30;;
71106;SDS011;58763;47.982;11.516;2023-11-19T06:24:30;0.70;;;0.40;;
71106;SDS011;58763;47.982;11.516;2023-11-19T06:26:56;0.63;;;0.22;;
71106;SDS011;58763;47.982;11.516;2023-11-19T06:29:21;0.82;;;0.30;;
71106;SDS011;58763;47.982;11.516;2023-11-19T06:31:47;1.67;;;0.50;;
71106;SDS011;58763;47.982;11.516;2023-11-19T06:34:15;0.77;;;0.40;;
71106;SDS011;58763;47.982;11.516;2023-11-19T06:36:40;0.47;;;0.30;;
71106;SDS011;58763;47.982;11.516;2023-11-19T06:39:06;0.52;;;0.30;;
71106;SDS011;58763;47.982;11.516;2023-11-19T06:41:31;0.47;;;0.20;;
71106;SDS011;58763;47.982;11.516;2023-11-19T06:43:57;0.28;;;0.22;;
71106;SDS011;58763;47.982;11.516;2023-11-19T06:46:23;0.50;;;0.20;;
71106;SDS011;58763;47.982;11.516;2023-11-19T06:48:49;0.73;;;0.30;;
71106;SDS011;58763;47.982;11.516;2023-11-19T06:51:14;0.80;;;0.40;;
71106;SDS011;58763;47.982;11.516;2023-11-19T06:53:40;0.50;;;0.30;;
71106;SDS011;58763;47.982;11.516;2023-11-19T06:56:06;0.65;;;0.30;;
71106;SDS011;58763;47.982;11.516;2023-11-19T06:58:42;0.65;;;0.32;;
71106;SDS011;58763;47.982;11.516;2023-11-19T07:01:08;0.75;;;0.30;;
71106;SDS011;58763;47.982;11.516;2023-11-19T07:03:34;0.50;;;0.30;;
71106;SDS011;58763;47.982;11.516;2023-11-19T07:06:00;0.57;;;0.28;;
71106;SDS011;58763;47.982;11.516;2023-11-19T07:08:25;0.40;;;0.30;;
71106;SDS011;58763;47.982;11.516;2023-11-19T07:10:52;0.63;;;0.30;;
71106;SDS011;58763;47.982;11.516;2023-11-19T07:13:17;0.50;;;0.30;;
71106;SDS011;58763;47.982;11.516;2023-11-19T07:15:44;0.68;;;0.30;;
71106;SDS011;58763;47.982;11.516;2023-11-19T07:18:09;1.60;;;0.32;;
71106;SDS011;58763;47.982;11.516;2023-11-19T07:20:36;0.60;;;0.20;;
71106;SDS011;58763;47.982;11.516;2023-11-19T07:23:03;0.85;;;0.30;;
71106;SDS011;58763;47.982;11.516;2023-11-19T07:25:28;0.68;;;0.30;;
71106;SDS011;58763;47.982;11.516;2023-11-19T07:27:54;0.40;;;0.20;;
71106;SDS011;58763;47.982;11.516;2023-11-19T07:30:19;0.47;;;0.20;;
71106;SDS011;58763;47.982;11.516;2023-11-19T07:32:45;1.05;;;0.22;;
71106;SDS011;58763;47.982;11.516;2023-11-19T07:35:15;1.23;;;0.25;;
71106;SDS011;58763;47.982;11.516;2023-11-19T07:37:41;0.55;;;0.28;;
71106;SDS011;58763;47.982;11.516;2023-11-19T07:40:07;0.40;;;0.20;;
71106;SDS011;58763;47.982;11.516;2023-11-19T07:42:33;0.43;;;0.20;;
71106;SDS011;58763;47.982;11.516;2023-11-19T07:44:58;0.63;;;0.20;;
71106;SDS011;58763;47.982;11.516;2023-11-19T07:47:24;0.40;;;0.20;;
71106;SDS011;58763;47.982;11.516;2023-11-19T07:49:50;0.20;;;0.20;;
71106;SDS011;58763;47.982;11.516;2023-11-19T07:52:16;0.30;;;0.20;;
71106;SDS011;58763;47.982;11.516;2023-11-19T07:54:47;0.20;;;0.20;;
71106;SDS011;58763;47.982;11.516;2023-11-19T07:57:17;0.30;;;0.25;;
71106;SDS011;58763;47.982;11.516;2023-11-19T07:59:42;0.30;;;0.20;;
71106;SDS011;58763;47.982;11.516;2023-11-19T08:02:08;0.68;;;0.20;;
71106;SDS011;58763;47.982;11.516;2023-11-19T08:04:34;1.08;;;0.30;;
71106;SDS011;58763;47.982;11.516;2023-11-19T08:06:59;0.90;;;0.30;;
71106;SDS011;58763;47.982;11.516;2023-11-19T08:09:25;0.40;;;0.30;;
71106;SDS011;58763;47.982;11.516;2023-11-19T08:11:50;0.35;;;0.25;;
71106;SDS011;58763;47.982;11.516;2023-11-19T08:14:16;0.70;;;0.30;;
71106;SDS011;58763;47.982;11.516;2023-11-19T08:16:41;1.90;;;0.30;;
71106;SDS011;58763;47.982;11.516;2023-11-19T08:19:07;0.47;;;0.30;;
71106;SDS011;58763;47.982;11.516;2023-11-19T08:21:33;0.60;;;0.30;;
71106;SDS011;58763;47.982;11.516;2023-11-19T08:23:59;0.63;;;0.30;;
71106;SDS011;58763;47.982;11.516;2023-11-19T08:26:24;0.88;;;0.30;;
71106;SDS011;58763;47.982;11.516;2023-11-19T08:28:49;1.00;;;0.40;;
71106;SDS011;58763;47.982;11.516;2023-11-19T08:31:17;0.82;;;0.40;;
71106;SDS011;58763;47.982;11.516;2023-11-19T08:33:42;0.60;;;0.25;;
71106;SDS011;58763;47.982;11.516;2023-11-19T08:36:08;0.52;;;0.25;;
71106;SDS011;58763;47.982;11.516;2023-11-19T08:38:33;0.90;;;0.30;;
71106;SDS011;58763;47.982;11.516;2023-11-19T08:40:59;0.90;;;0.40;;
71106;SDS011;58763;47.982;11.516;2023-11-19T08:43:29;0.93;;;0.40;;
71106;SDS011;58763;47.982;11.516;2023-11-19T08:45:56;0.77;;;0.28;;
71106;SDS011;58763;47.982;11.516;2023-11-19T08:48:21;0.77;;;0.30;;
71106;SDS011;58763;47.982;11.516;2023-11-19T08:50:46;1.52;;;0.47;;
71106;SDS011;58763;47.982;11.516;2023-11-19T08:53:12;0.52;;;0.30;;
71106;SDS011;58763;47.982;11.516;2023-11-19T08:55:37;1.13;;;0.35;;
71106;SDS011;58763;47.982;11.516;2023-11-19T08:58:03;1.02;;;0.38;;
71106;SDS011;58763;47.982;11.516;2023-11-19T09:00:28;1.10;;;0.50;;
71106;SDS011;58763;47.982;11.516;2023-11-19T09:02:55;0.95;;;0.40;;
71106;SDS011;58763;47.982;11.516;2023-11-19T09:05:20;0.95;;;0.40;;
71106;SDS011;58763;47.982;11.516;2023-11-19T09:07:46;0.82;;;0.40;;
71106;SDS011;58763;47.982;11.516;2023-11-19T09:10:11;1.02;;;0.40;;
71106;SDS011;58763;47.982;11.516;2023-11-19T09:12:37;0.45;;;0.30;;
71106;SDS011;58763;47.982;11.516;2023-11-19T09:15:02;1.33;;;0.50;;
71106;SDS011;58763;47.982;11.516;2023-11-19T09:17:28;1.00;;;0.35;;
71106;SDS011;58763;47.982;11.516;2023-11-19T09:19:54;1.40;;;0.50;;
71106;SDS011;58763;47.982;11.516;2023-11-19T09:22:19;1.15;;;0.50;;
71106;SDS011;58763;47.982;11.516;2023-11-19T09:24:45;1.10;;;0.30;;
71106;SDS011;58763;47.982;11.516;2023-11-19T09:27:10;1.33;;;0.30;;
71106;SDS011;58763;47.982;11.516;2023-11-19T09:29:36;0.60;;;0.32;;
71106;SDS011;58763;47.982;11.516;2023-11-19T09:32:01;1.05;;;0.35;;
71106;SDS011;58763;47.982;11.516;2023-11-19T09:34:27;1.05;;;0.40;;
71106;SDS011;58763;47.982;11.516;2023-11-19T09:36:53;0.43;;;0.20;;
71106;SDS011;58763;47.982;11.516;2023-11-19T09:39:18;1.60;;;0.30;;
71106;SDS011;58763;47.982;11.516;2023-11-19T09:41:44;0.68;;;0.30;;
71106;SDS011;58763;47.982;11.516;2023-11-19T09:44:12;1.17;;;0.38;;
71106;SDS011;58763;47.982;11.516;2023-11-19T09:46:40;1.05;;;0.40;;
71106;SDS011;58763;47.982;11.516;2023-11-19T09:49:06;0.75;;;0.32;;
71106;SDS011;58763;47.982;11.516;2023-11-19T09:51:34;0.77;;;0.30;;
71106;SDS011;58763;47.982;11.516;2023-11-19T09:54:01;0.70;;;0.40;;
71106;SDS011;58763;47.982;11.516;2023-11-19T09:56:28;0.82;;;0.38;;
71106;SDS011;58763;47.982;11.516;2023-11-19T09:58:55;1.48;;;0.40;;
71106;SDS011;58763;47.982;11.516;2023-11-19T10:01:21;2.88;;;0.40;;
71106;SDS011;58763;47.982;11.516;2023-11-19T10:03:47;0.88;;;0.35;;
71106;SDS011;58763;47.982;11.516;2023-11-19T10:06:15;1.77;;;0.40;;
71106;SDS011;58763;47.982;11.516;2023-11-19T10:08:41;1.02;;;0.40;;
71106;SDS011;58763;47.982;11.516;2023-11-19T10:11:08;1.35;;;0.30;;
71106;SDS011;58763;47.982;11.516;2023-11-19T10:13:35;1.90;;;0.38;;
71106;SDS011;58763;47.982;11.516;2023-11-19T10:16:04;1.27;;;0.45;;
71106;SDS011;58763;47.982;11.516;2023-11-19T10:18:34;1.17;;;0.38;;
71106;SDS011;58763;47.982;11.516;2023-11-19T10:21:03;0.57;;;0.30;;
71106;SDS011;58763;47.982;11.516;2023-11-19T10:23:31;0.85;;;0.30;;
71106;SDS011;58763;47.982;11.516;2023-11-19T10:26:05;0.80;;;0.30;;
71106;SDS011;58763;47.982;11.516;2023-11-19T10:28:41;1.23;;;0.40;;
71106;SDS011;58763;47.982;11.516;2023-11-19T10:31:14;1.25;;;0.40;;
71106;SDS011;58763;47.982;11.516;2023-11-19T10:33:43;1.77;;;0.30;;
71106;SDS011;58763;47.982;11.516;2023-11-19T10:36:10;0.70;;;0.30;;
71106;SDS011;58763;47.982;11.516;2023-11-19T10:38:40;1.30;;;0.30;;
71106;SDS011;58763;47.982;11.516;2023-11-19T10:41:26;1.38;;;0.30;;
71106;SDS011;58763;47.982;11.516;2023-11-19T10:43:51;0.93;;;0.40;;
71106;SDS011;58763;47.982;11.516;2023-11-19T10:46:17;0.52;;;0.30;;
71106;SDS011;58763;47.982;11.516;2023-11-19T10:48:46;0.35;;;0.20;;
71106;SDS011;58763;47.982;11.516;2023-11-19T10:51:11;1.20;;;0.30;;
71106;SDS011;58763;47.982;11.516;2023-11-19T10:53:46;0.47;;;0.30;;
71106;SDS011;58763;47.982;11.516;2023-11-19T10:56:15;0.90;;;0.30;;
71106;SDS011;58763;47.982;11.516;2023-11-19T10:58:44;1.00;;;0.32;;
71106;SDS011;58763;47.982;11.516;2023-11-19T11:01:16;0.82;;;0.30;;
71106;SDS011;58763;47.982;11.516;2023-11-19T11:03:47;0.63;;;0.25;;
71106;SDS011;58763;47.982;11.516;2023-11-19T11:06:16;1.75;;;0.40;;
71106;SDS011;58763;47.982;11.516;2023-11-19T11:08:43;1.02;;;0.40;;
71106;SDS011;58763;47.982;11.516;2023-11-19T11:11:11;3.00;;;1.05;;
71106;SDS011;58763;47.982;11.516;2023-11-19T11:13:41;0.80;;;0.30;;
71106;SDS011;58763;47.982;11.516;2023-11-19T11:16:08;0.70;;;0.40;;
71106;SDS011;58763;47.982;11.516;2023-11-19T11:18:33;0.77;;;0.30;;
71106;SDS011;58763;47.982;11.516;2023-11-19T11:21:09;0.52;;;0.30;;
71106;SDS011;58763;47.982;11.516;2023-11-19T11:23:56;0.60;;;0.30;;
71106;SDS011;58763;47.982;11.516;2023-11-19T11:32:01;1.08;;;0.30;;
71106;SDS011;58763;47.982;11.516;2023-11-19T11:37:23;1.17;;;0.30;;
71106;SDS011;58763;47.982;11.516;2023-11-19T11:39:57;0.30;;;0.20;;
71106;SDS011;58763;47.982;11.516;2023-11-19T11:50:15;0.75;;;0.30;;
71106;SDS011;58763;47.982;11.516;2023-11-19T11:55:27;0.93;;;0.35;;
71106;SDS011;58763;47.982;11.516;2023-11-19T11:58:00;2.17;;;0.35;;
71106;SDS011;58763;47.982;11.516;2023-11-19T12:02:55;0.40;;;0.28;;
71106;SDS011;58763;47.982;11.516;2023-11-19T12:05:21;0.93;;;0.30;;
71106;SDS011;58763;47.982;11.516;2023-11-19T12:07:54;0.57;;;0.30;;
71106;SDS011;58763;47.982;11.516;2023-11-19T12:10:26;0.55;;;0.30;;
71106;SDS011;58763;47.982;11.516;2023-11-19T12:12:59;0.60;;;0.40;;
71106;SDS011;58763;47.982;11.516;2023-11-19T12:15:26;0.70;;;0.30;;
71106;SDS011;58763;47.982;11.516;2023-11-19T12:17:53;0.30;;;0.20;;
71106;SDS011;58763;47.982;11.516;2023-11-19T12:20:23;2.20;;;0.30;;
71106;SDS011;58763;47.982;11.516;2023-11-19T12:22:50;0.68;;;0.20;;
71106;SDS011;58763;47.982;11.516;2023-11-19T12:25:17;0.70;;;0.30;;
71106;SDS011;58763;47.982;11.516;2023-11-19T12:27:50;0.90;;;0.30;;
71106;SDS011;58763;47.982;11.516;2023-11-19T12:30:26;1.27;;;0.40;;
71106;SDS011;58763;47.982;11.516;2023-11-19T12:32:52;1.98;;;0.38;;
71106;SDS011;58763;47.982;11.516;2023-11-19T12:35:19;0.65;;;0.30;;
71106;SDS011;58763;47.982;11.516;2023-11-19T12:37:48;0.65;;;0.30;;
71106;SDS011;58763;47.982;11.516;2023-11-19T12:40:19;0.45;;;0.25;;
71106;SDS011;58763;47.982;11.516;2023-11-19T12:42:46;0.40;;;0.30;;
71106;SDS011;58763;47.982;11.516;2023-11-19T12:45:13;0.80;;;0.40;;
71106;SDS011;58763;47.982;11.516;2023-11-19T12:47:39;1.25;;;0.60;;
71106;SDS011;58763;47.982;11.516;2023-11-19T12:50:06;1.70;;;0.60;;
71106;SDS011;58763;47.982;11.516;2023-11-19T12:52:33;1.08;;;0.50;;
71106;SDS011;58763;47.982;11.516;2023-11-19T12:54:59;3.40;;;1.77;;
71106;SDS011;58763;47.982;11.516;2023-11-19T12:57:40;2.58;;;1.58;;
71106;SDS011;58763;47.982;11.516;2023-11-19T13:00:06;3.72;;;2.10;;
71106;SDS011;58763;47.982;11.516;2023-11-19T13:02:45;6.17;;;3.37;;
71106;SDS011;58763;47.982;11.516;2023-11-19T13:05:22;3.55;;;2.25;;
71106;SDS011;58763;47.982;11.516;2023-11-19T13:07:48;2.55;;;1.55;;
71106;SDS011;58763;47.982;11.516;2023-11-19T13:10:13;5.13;;;2.90;;
71106;SDS011;58763;47.982;11.516;2023-11-19T13:12:40;6.57;;;4.57;;
71106;SDS011;58763;47.982;11.516;2023-11-19T13:15:05;2.60;;;1.30;;
71106;SDS011;58763;47.982;11.516;2023-11-19T13:17:31;3.88;;;2.33;;
71106;SDS011;58763;47.982;11.516;2023-11-19T13:19:57;8.48;;;5.13;;
71106;SDS011;58763;47.982;11.516;2023-11-19T13:22:22;5.15;;;3.05;;
71106;SDS011;58763;47.982;11.516;2023-11-19T13:24:48;3.42;;;1.70;;
71106;SDS011;58763;47.982;11.516;2023-11-19T13:27:13;3.90;;;2.00;;
71106;SDS011;58763;47.982;11.516;2023-11-19T13:29:39;5.50;;;3.75;;
71106;SDS011;58763;47.982;11.516;2023-11-19T13:32:05;2.40;;;1.00;;
71106;SDS011;58763;47.982;11.516;2023-11-19T13:34:30;5.22;;;3.05;;
71106;SDS011;58763;47.982;11.516;2023-11-19T13:36:56;3.03;;;1.33;;
71106;SDS011;58763;47.982;11.516;2023-11-19T13:39:22;5.88;;;2.50;;
71106;SDS011;58763;47.982;11.516;2023-11-19T13:41:49;2.92;;;1.30;;
71106;SDS011;58763;47.982;11.516;2023-11-19T13:44:15;5.28;;;2.60;;
71106;SDS011;58763;47.982;11.516;2023-11-19T13:46:43;7.20;;;3.83;;
71106;SDS011;58763;47.982;11.516;2023-11-19T13:49:10;6.45;;;2.83;;
71106;SDS011;58763;47.982;11.516;2023-11-19T13:51:35;15.48;;;11.23;;
71106;SDS011;58763;47.982;11.516;2023-11-19T13:54:01;10.50;;;7.97;;
71106;SDS011;58763;47.982;11.516;2023-11-19T13:56:26;4.38;;;2.47;;
71106;SDS011;58763;47.982;11.516;2023-11-19T13:58:52;6.15;;;4.20;;
71106;SDS011;58763;47.982;11.516;2023-11-19T14:01:18;5.75;;;3.50;;
71106;SDS011;58763;47.982;11.516;2023-11-19T14:03:44;4.47;;;1.92;;
71106;SDS011;58763;47.982;11.516;2023-11-19T14:06:09;6.50;;;3.85;;
71106;SDS011;58763;47.982;11.516;2023-11-19T14:08:35;7.78;;;4.85;;
71106;SDS011;58763;47.982;11.516;2023-11-19T14:11:00;2.70;;;1.20;;
71106;SDS011;58763;47.982;11.516;2023-11-19T14:13:26;5.78;;;3.38;;
71106;SDS011;58763;47.982;11.516;2023-11-19T14:15:52;2.65;;;1.25;;
71106;SDS011;58763;47.982;11.516;2023-11-19T14:18:17;8.23;;;4.80;;
71106;SDS011;58763;47.982;11.516;2023-11-19T14:20:43;5.10;;;2.50;;
71106;SDS011;58763;47.982;11.516;2023-11-19T14:23:09;4.65;;;2.50;;
71106;SDS011;58763;47.982;11.516;2023-11-19T14:25:34;2.60;;;0.80;;
71106;SDS011;58763;47.982;11.516;2023-11-19T14:28:00;3.78;;;1.48;;
71106;SDS011;58763;47.982;11.516;2023-11-19T14:30:25;4.43;;;2.92;;
71106;SDS011;58763;47.982;11.516;2023-11-19T14:32:52;2.55;;;1.00;;
71106;SDS011;58763;47.982;11.516;2023-11-19T14:35:18;9.82;;;5.90;;
71106;SDS011;58763;47.982;11.516;2023-11-19T14:37:45;1.63;;;0.63;;
71106;SDS011;58763;47.982;11.516;2023-11-19T14:40:12;3.47;;;0.95;;
71106;SDS011;58763;47.982;11.516;2023-11-19T14:42:37;1.08;;;0.47;;
71106;SDS011;58763;47.982;11.516;2023-11-19T14:45:04;0.68;;;0.30;;
71106;SDS011;58763;47.982;11.516;2023-11-19T14:47:30;3.17;;;1.10;;
71106;SDS011;58763;47.982;11.516;2023-11-19T14:49:55;1.15;;;0.47;;
71106;SDS011;58763;47.982;11.516;2023-11-19T14:52:21;3.50;;;1.52;;
71106;SDS011;58763;47.982;11.516;2023-11-19T14:54:46;2.40;;;1.20;;